Time;durP1;ratioP1;P1;durP2;ratioP2;P2;SDS_P1;SDS_P2;PMS_P1;PMS_P2;Temp;Humidity;BMP_temperature;BMP_pressure;BME280_temperature;BME280_humidity;BME280_pressure;Samples;Min_cycle;Max_cycle;Signal;HPM_P1;HPM_P2
2022/07/16 00:03:17;;;;;;;3.20;2.35;;;15.70;99.90;;;;;;5045470;28;20045;-79
2022/07/16 00:05:44;;;;;;;5.72;2.58;;;15.70;99.90;;;;;;5043935;28;20044;-79
2022/07/16 00:08:10;;;;;;;6.18;2.70;;;15.70;99.90;;;;;;5047166;28;20415;-78
2022/07/16 00:10:35;;;;;;;5.10;2.42;;;15.70;99.90;;;;;;5045177;28;20036;-78
2022/07/16 00:13:02;;;;;;;4.80;2.58;;;15.80;99.90;;;;;;5044676;28;20637;-77
2022/07/16 00:15:31;;;;;;;3.92;2.30;;;15.80;99.90;;;;;;5043506;28;20112;-78
2022/07/16 00:20:41;;;;;;;;;;;15.90;99.90;;;;;;5045664;28;20037;-77
2022/07/16 00:23:06;;;;;;;3.75;2.30;;;15.90;99.90;;;;;;5044676;28;19916;-77
2022/07/16 00:25:33;;;;;;;4.13;2.30;;;16.00;99.90;;;;;;5045050;28;20040;-78
2022/07/16 00:27:59;;;;;;;5.15;2.53;;;16.00;99.90;;;;;;5043959;28;20120;-78
2022/07/16 00:30:25;;;;;;;4.90;2.30;;;16.00;99.90;;;;;;5046097;28;20477;-78
2022/07/16 00:32:50;;;;;;;4.28;2.33;;;16.00;99.90;;;;;;5043666;28;20045;-78
2022/07/16 00:35:16;;;;;;;6.75;2.40;;;16.10;99.90;;;;;;5029526;28;20037;-78
2022/07/16 00:37:41;;;;;;;4.97;2.47;;;16.10;99.90;;;;;;5028793;28;20120;-78
2022/07/16 00:40:07;;;;;;;3.95;2.67;;;16.10;99.90;;;;;;5030486;28;20040;-78
2022/07/16 00:42:33;;;;;;;6.97;2.97;;;16.10;99.90;;;;;;5046339;28;20060;-79
2022/07/16 00:44:58;;;;;;;4.35;2.50;;;16.10;99.90;;;;;;5045051;28;20654;-78
2022/07/16 00:47:24;;;;;;;4.55;2.70;;;16.00;99.90;;;;;;5047013;28;20407;-80
2022/07/16 00:49:49;;;;;;;8.57;3.20;;;15.90;99.90;;;;;;5046017;28;20041;-79
2022/07/16 00:52:15;;;;;;;5.28;2.10;;;15.90;99.90;;;;;;5047338;28;20454;-81
2022/07/16 00:54:41;;;;;;;3.95;2.10;;;15.80;99.90;;;;;;5045479;28;20463;-82
2022/07/16 00:57:06;;;;;;;4.50;2.35;;;15.70;99.90;;;;;;5048386;28;20410;-80
2022/07/16 00:59:32;;;;;;;4.00;2.20;;;15.60;99.90;;;;;;5050452;28;20426;-80
2022/07/16 01:01:57;;;;;;;5.78;2.25;;;15.60;99.90;;;;;;5039021;28;20045;-79
2022/07/16 01:04:23;;;;;;;4.18;2.20;;;15.60;99.90;;;;;;5020577;28;20037;-80
2022/07/16 01:06:49;;;;;;;3.50;2.40;;;15.60;99.90;;;;;;5033115;28;20065;-79
2022/07/16 01:09:16;;;;;;;4.57;2.53;;;15.60;99.90;;;;;;5032646;28;20080;-79
2022/07/16 01:11:44;;;;;;;4.07;2.45;;;15.60;99.90;;;;;;5032270;28;20115;-78
2022/07/16 01:14:10;;;;;;;8.15;2.53;;;15.60;99.90;;;;;;5031758;28;20048;-78
2022/07/16 01:16:36;;;;;;;5.47;2.35;;;15.50;99.90;;;;;;5049501;28;20124;-78
2022/07/16 01:19:02;;;;;;;7.57;2.22;;;15.60;99.90;;;;;;5015536;28;20103;-78
2022/07/16 01:21:28;;;;;;;4.85;2.15;;;15.50;99.90;;;;;;5031713;28;20047;-78
2022/07/16 01:23:53;;;;;;;5.63;2.15;;;15.50;99.90;;;;;;5031067;28;20037;-78
2022/07/16 01:26:19;;;;;;;4.32;2.33;;;15.50;99.90;;;;;;5030641;28;20181;-78
2022/07/16 01:28:45;;;;;;;6.72;2.40;;;15.50;99.90;;;;;;5030699;28;20148;-78
2022/07/16 01:31:10;;;;;;;4.55;2.17;;;15.50;99.90;;;;;;5030732;28;20041;-78
2022/07/16 01:33:39;;;;;;;6.25;2.10;;;15.50;99.90;;;;;;5026128;28;20483;-78
2022/07/16 01:36:07;;;;;;;7.15;2.85;;;15.50;99.90;;;;;;5030800;28;20040;-77
2022/07/16 01:38:33;;;;;;;4.60;2.25;;;15.50;99.90;;;;;;5031447;28;20048;-77
2022/07/16 01:40:59;;;;;;;5.07;2.00;;;15.50;99.90;;;;;;5031447;28;20041;-77
2022/07/16 01:43:27;;;;;;;6.35;2.08;;;15.50;99.90;;;;;;5031328;28;20100;-77
2022/07/16 01:45:53;;;;;;;6.13;2.20;;;15.50;99.90;;;;;;5031545;28;20376;-77
2022/07/16 01:48:20;;;;;;;5.25;1.90;;;15.50;99.90;;;;;;5044722;28;20122;-77
2022/07/16 01:50:46;;;;;;;4.95;1.80;;;15.50;99.90;;;;;;5042569;28;20053;-77
2022/07/16 01:53:13;;;;;;;4.95;1.92;;;15.40;99.90;;;;;;5043498;28;20040;-77
2022/07/16 01:55:39;;;;;;;4.72;1.70;;;15.40;99.90;;;;;;5041823;28;20044;-77
2022/07/16 01:58:06;;;;;;;5.03;1.73;;;15.40;99.90;;;;;;5045044;28;20041;-77
2022/07/16 02:00:32;;;;;;;6.20;1.90;;;15.40;99.90;;;;;;5045266;28;20049;-77
2022/07/16 02:02:58;;;;;;;5.30;1.50;;;15.40;99.90;;;;;;5043774;28;20045;-78
2022/07/16 02:05:24;;;;;;;5.15;1.65;;;15.30;99.90;;;;;;5041677;28;20057;-77
2022/07/16 02:07:50;;;;;;;5.85;1.65;;;15.30;99.90;;;;;;5042851;28;20043;-77
2022/07/16 02:10:16;;;;;;;5.22;1.73;;;15.30;99.90;;;;;;5029722;28;20041;-78
2022/07/16 02:12:41;;;;;;;7.32;1.73;;;15.30;99.90;;;;;;5041594;28;20037;-77
2022/07/16 02:15:07;;;;;;;5.60;1.60;;;15.30;99.90;;;;;;5040657;28;20080;-77
2022/07/16 02:17:34;;;;;;;4.85;1.70;;;15.20;99.90;;;;;;5044333;28;20044;-77
2022/07/16 02:20:00;;;;;;;8.25;1.90;;;15.20;99.90;;;;;;5043726;28;20044;-77
2022/07/16 02:22:26;;;;;;;3.33;1.60;;;15.10;99.90;;;;;;5043163;28;20068;-77
2022/07/16 02:24:52;;;;;;;6.35;1.73;;;15.10;99.90;;;;;;5043116;28;20072;-77
2022/07/16 02:27:17;;;;;;;4.97;1.63;;;15.10;99.90;;;;;;5041683;28;20037;-77
2022/07/16 02:29:43;;;;;;;8.98;2.00;;;15.10;99.90;;;;;;5046246;28;20047;-78
2022/07/16 02:32:08;;;;;;;5.88;1.60;;;15.10;99.90;;;;;;5041279;28;20117;-77
2022/07/16 02:34:34;;;;;;;7.57;1.90;;;15.10;99.90;;;;;;5041010;28;20131;-77
2022/07/16 02:37:00;;;;;;;6.70;1.70;;;15.00;99.90;;;;;;5043552;28;20117;-77
2022/07/16 02:39:25;;;;;;;3.55;1.63;;;15.00;99.90;;;;;;5044754;28;20033;-77
2022/07/16 02:41:51;;;;;;;4.55;1.60;;;15.00;99.90;;;;;;5043501;28;20499;-77
2022/07/16 02:44:16;;;;;;;5.63;1.63;;;15.00;99.90;;;;;;5042918;28;20079;-77
2022/07/16 02:46:42;;;;;;;4.55;1.67;;;15.00;99.90;;;;;;5025710;28;20751;-77
2022/07/16 02:49:07;;;;;;;5.80;2.13;;;15.00;99.90;;;;;;5047736;28;20110;-77
2022/07/16 02:51:33;;;;;;;7.15;2.05;;;14.90;99.90;;;;;;5045247;28;20495;-77
2022/07/16 02:53:58;;;;;;;6.85;2.00;;;15.00;99.90;;;;;;5041770;28;20033;-77
2022/07/16 02:56:24;;;;;;;4.20;1.70;;;14.90;99.90;;;;;;5042601;28;20039;-77
2022/07/16 02:58:49;;;;;;;7.18;1.95;;;14.90;99.90;;;;;;5043746;28;20067;-77
2022/07/16 03:01:15;;;;;;;6.57;1.70;;;14.80;99.90;;;;;;5041338;28;20029;-77
2022/07/16 03:03:41;;;;;;;6.22;1.88;;;14.80;99.90;;;;;;5043980;28;20504;-77
2022/07/16 03:06:06;;;;;;;4.55;1.90;;;14.70;99.90;;;;;;5041607;28;20483;-76
2022/07/16 03:08:32;;;;;;;5.68;1.55;;;14.70;99.90;;;;;;5041910;28;20033;-77
2022/07/16 03:10:58;;;;;;;5.22;2.38;;;14.60;99.90;;;;;;5042581;28;20044;-77
2022/07/16 03:13:23;;;;;;;4.40;1.80;;;14.60;99.90;;;;;;5025426;28;20037;-77
2022/07/16 03:15:49;;;;;;;8.65;1.70;;;14.60;99.90;;;;;;5042599;28;20124;-77
2022/07/16 03:18:15;;;;;;;4.25;1.60;;;14.50;99.90;;;;;;5049557;28;20025;-77
2022/07/16 03:20:40;;;;;;;3.85;1.48;;;14.50;99.90;;;;;;5051124;28;20410;-77
2022/07/16 03:23:06;;;;;;;4.38;1.52;;;14.50;99.90;;;;;;5050175;28;20033;-77
2022/07/16 03:25:32;;;;;;;7.20;1.73;;;14.40;99.90;;;;;;5040688;28;20033;-77
2022/07/16 03:27:57;;;;;;;6.25;1.90;;;14.30;99.90;;;;;;5049489;28;20040;-77
2022/07/16 03:30:23;;;;;;;6.30;1.75;;;14.30;99.90;;;;;;5049245;28;20037;-77
2022/07/16 03:32:49;;;;;;;4.05;1.75;;;14.30;99.90;;;;;;5047864;28;20084;-77
2022/07/16 03:35:14;;;;;;;5.25;1.60;;;14.20;99.90;;;;;;5037878;28;20129;-77
2022/07/16 03:40:25;;;;;;;4.88;1.77;;;14.20;99.90;;;;;;5059412;28;20112;-77
2022/07/16 03:42:51;;;;;;;7.30;2.15;;;14.10;99.90;;;;;;5047585;28;20100;-77
2022/07/16 03:45:17;;;;;;;4.15;1.95;;;14.10;99.90;;;;;;5032955;28;20449;-77
2022/07/16 03:47:43;;;;;;;5.32;1.90;;;14.10;99.90;;;;;;5045986;28;20056;-77
2022/07/16 03:50:09;;;;;;;8.55;2.33;;;14.00;99.90;;;;;;5057119;28;20523;-77
2022/07/16 03:52:34;;;;;;;7.55;2.42;;;14.00;99.90;;;;;;5054216;28;20029;-77
2022/07/16 03:55:00;;;;;;;5.30;2.10;;;14.00;99.90;;;;;;5029775;28;20044;-77
2022/07/16 03:57:25;;;;;;;8.48;2.83;;;14.00;99.90;;;;;;5049786;28;20112;-77
2022/07/16 03:59:51;;;;;;;6.95;2.40;;;13.90;99.90;;;;;;5049276;28;20051;-77
2022/07/16 04:02:18;;;;;;;5.70;2.20;;;13.90;99.90;;;;;;5041833;28;20048;-77
2022/07/16 04:04:44;;;;;;;9.85;2.35;;;13.90;99.90;;;;;;5048185;28;20056;-78
2022/07/16 04:07:09;;;;;;;6.88;2.28;;;13.90;99.90;;;;;;5048929;28;20410;-77
2022/07/16 04:09:35;;;;;;;6.85;1.98;;;14.00;99.90;;;;;;5048736;28;20039;-77
2022/07/16 04:12:01;;;;;;;6.60;2.00;;;14.00;99.90;;;;;;5048238;28;20063;-77
2022/07/16 04:14:26;;;;;;;11.85;2.20;;;14.10;99.90;;;;;;5047787;28;20410;-77
2022/07/16 04:16:52;;;;;;;5.10;2.13;;;14.00;99.90;;;;;;5047893;28;20499;-77
2022/07/16 04:19:18;;;;;;;6.72;2.00;;;14.10;99.90;;;;;;5033300;28;20044;-78
2022/07/16 04:21:43;;;;;;;9.50;2.28;;;14.10;99.90;;;;;;5049242;28;20083;-77
2022/07/16 04:24:09;;;;;;;9.60;2.30;;;14.20;99.90;;;;;;5048246;28;20048;-77
2022/07/16 04:26:34;;;;;;;4.75;2.10;;;14.20;99.90;;;;;;5045899;28;20037;-78
2022/07/16 04:29:00;;;;;;;7.15;2.28;;;14.20;99.90;;;;;;5045554;28;20530;-77
2022/07/16 04:31:26;;;;;;;7.05;2.10;;;14.20;99.90;;;;;;5044669;28;20041;-77
2022/07/16 04:33:51;;;;;;;5.63;1.98;;;14.20;99.90;;;;;;5043344;28;20518;-78
2022/07/16 04:36:17;;;;;;;8.38;2.50;;;14.20;99.90;;;;;;5042890;28;20144;-78
2022/07/16 04:38:43;;;;;;;4.65;1.63;;;14.30;99.90;;;;;;5047577;28;20414;-77
2022/07/16 04:41:08;;;;;;;9.23;2.40;;;14.30;99.90;;;;;;5044838;28;20119;-77
2022/07/16 04:43:34;;;;;;;7.07;1.67;;;14.30;99.90;;;;;;5045221;28;20043;-77
2022/07/16 04:45:59;;;;;;;7.95;1.90;;;14.30;99.90;;;;;;5042499;28;20040;-77
2022/07/16 04:48:25;;;;;;;6.07;1.80;;;14.30;99.90;;;;;;5033218;28;20110;-77
2022/07/16 04:50:50;;;;;;;9.93;2.20;;;14.30;99.90;;;;;;5044940;28;20442;-78
2022/07/16 04:53:16;;;;;;;10.00;1.95;;;14.30;99.90;;;;;;5045702;28;20036;-78
2022/07/16 04:55:41;;;;;;;5.97;1.98;;;14.40;99.90;;;;;;5027191;28;20041;-78
2022/07/16 04:58:07;;;;;;;9.70;1.80;;;14.40;99.90;;;;;;5045604;28;20032;-77
2022/07/16 05:00:33;;;;;;;5.68;1.75;;;14.40;99.90;;;;;;5046468;28;20033;-78
2022/07/16 05:02:58;;;;;;;6.40;1.65;;;14.40;99.90;;;;;;5042789;28;20059;-78
2022/07/16 05:05:27;;;;;;;4.40;1.48;;;14.40;99.90;;;;;;5044439;28;20083;-78
2022/07/16 05:07:52;;;;;;;5.65;1.60;;;14.50;99.90;;;;;;5044254;28;20264;-78
2022/07/16 05:10:18;;;;;;;3.85;1.45;;;14.50;99.90;;;;;;5040853;28;20040;-77
2022/07/16 05:12:44;;;;;;;8.45;1.70;;;14.60;99.90;;;;;;5044803;28;20037;-78
2022/07/16 05:15:09;;;;;;;7.18;1.40;;;14.80;99.90;;;;;;5043328;28;20631;-78
2022/07/16 05:17:35;;;;;;;10.02;1.75;;;14.80;99.90;;;;;;5043516;28;20494;-78
2022/07/16 05:20:01;;;;;;;5.32;1.33;;;14.90;99.90;;;;;;5043892;28;20049;-78
2022/07/16 05:22:26;;;;;;;5.72;1.27;;;14.90;99.90;;;;;;5044758;28;20573;-78
2022/07/16 05:24:52;;;;;;;7.22;1.00;;;14.90;99.90;;;;;;5044530;28;20041;-78
2022/07/16 05:27:17;;;;;;;9.93;1.17;;;15.00;99.90;;;;;;5044039;28;20065;-78
2022/07/16 05:29:43;;;;;;;7.28;1.33;;;15.10;99.90;;;;;;5046209;28;20037;-78
2022/07/16 05:32:08;;;;;;;6.35;1.55;;;15.20;99.90;;;;;;5042832;28;20038;-78
2022/07/16 05:34:34;;;;;;;5.75;1.20;;;15.20;99.90;;;;;;5045016;28;20094;-78
2022/07/16 05:36:59;;;;;;;8.48;2.40;;;15.30;99.90;;;;;;5042870;28;20040;-78
2022/07/16 05:39:25;;;;;;;4.90;1.38;;;15.40;99.90;;;;;;5045002;28;20041;-78
2022/07/16 05:41:51;;;;;;;5.32;1.10;;;15.40;99.90;;;;;;5046519;28;20055;-79
2022/07/16 05:44:16;;;;;;;4.15;1.30;;;15.40;99.90;;;;;;5044271;28;20029;-79
2022/07/16 05:46:42;;;;;;;5.50;1.33;;;15.40;99.90;;;;;;5041908;28;20126;-79
2022/07/16 05:49:08;;;;;;;6.70;1.00;;;15.50;99.90;;;;;;5046631;28;20037;-79
2022/07/16 05:51:33;;;;;;;7.50;1.05;;;15.50;99.90;;;;;;5046361;28;20055;-79
2022/07/16 05:53:59;;;;;;;5.72;1.30;;;15.60;99.90;;;;;;5044447;28;20041;-79
2022/07/16 05:56:24;;;;;;;12.70;1.38;;;15.70;99.90;;;;;;5043875;28;20032;-78
2022/07/16 05:58:50;;;;;;;7.07;1.05;;;15.80;99.90;;;;;;5045409;28;20045;-79
2022/07/16 06:01:15;;;;;;;7.57;1.13;;;15.80;99.90;;;;;;5044648;28;20033;-79
2022/07/16 06:03:41;;;;;;;5.03;1.00;;;15.90;99.90;;;;;;5024482;28;20048;-79
2022/07/16 06:06:06;;;;;;;6.57;1.10;;;15.90;99.90;;;;;;5044687;28;20458;-79
2022/07/16 06:08:32;;;;;;;7.93;1.23;;;16.00;99.90;;;;;;5046575;28;20040;-79
2022/07/16 06:10:59;;;;;;;8.18;1.42;;;16.00;99.90;;;;;;5043066;28;20438;-79
2022/07/16 06:13:24;;;;;;;6.82;1.27;;;16.00;99.90;;;;;;5025325;28;20453;-79
2022/07/16 06:15:50;;;;;;;12.25;1.45;;;16.20;99.90;;;;;;5042126;28;20111;-79
2022/07/16 06:18:16;;;;;;;5.75;1.00;;;16.20;99.90;;;;;;5045791;28;20094;-79
2022/07/16 06:20:41;;;;;;;8.93;1.30;;;16.40;99.90;;;;;;5045781;28;20475;-79
2022/07/16 06:23:07;;;;;;;6.38;1.15;;;16.50;99.90;;;;;;5027226;28;20037;-79
2022/07/16 06:25:32;;;;;;;4.65;1.17;;;16.50;99.90;;;;;;5044334;28;20041;-80
2022/07/16 06:27:58;;;;;;;4.20;0.93;;;16.50;99.90;;;;;;5044848;28;20033;-80
2022/07/16 06:30:24;;;;;;;4.70;1.17;;;16.40;99.90;;;;;;5031302;28;20443;-80
2022/07/16 06:32:49;;;;;;;5.30;0.90;;;16.40;99.90;;;;;;5043766;28;20040;-79
2022/07/16 06:35:15;;;;;;;5.22;0.63;;;16.40;99.90;;;;;;5048382;28;20030;-80
2022/07/16 06:37:41;;;;;;;4.40;1.00;;;16.60;99.90;;;;;;5045537;28;20047;-80
2022/07/16 06:40:07;;;;;;;3.78;1.00;;;16.60;99.90;;;;;;5046275;28;20094;-81
2022/07/16 06:42:33;;;;;;;7.20;1.10;;;16.60;99.90;;;;;;5045256;28;20057;-80
2022/07/16 06:44:59;;;;;;;5.50;0.90;;;16.70;99.90;;;;;;5045079;28;20434;-79
2022/07/16 06:47:24;;;;;;;6.13;1.10;;;16.80;99.90;;;;;;5045757;28;20059;-80
2022/07/16 06:49:50;;;;;;;6.22;0.93;;;16.90;99.90;;;;;;5042779;28;20470;-80
2022/07/16 06:52:16;;;;;;;3.75;0.80;;;16.90;99.90;;;;;;5043032;28;20086;-81
2022/07/16 06:54:41;;;;;;;4.53;1.10;;;16.90;99.90;;;;;;5042740;28;20045;-80
2022/07/16 06:57:07;;;;;;;6.15;1.02;;;16.70;99.90;;;;;;5043353;28;20120;-80
2022/07/16 06:59:32;;;;;;;4.50;0.88;;;16.80;99.90;;;;;;5043862;28;20632;-79
2022/07/16 07:01:58;;;;;;;5.43;0.98;;;16.70;99.90;;;;;;5045246;28;20454;-81
2022/07/16 07:04:24;;;;;;;6.68;1.00;;;16.60;99.90;;;;;;5044306;28;20052;-80
2022/07/16 07:06:49;;;;;;;4.72;0.88;;;16.50;99.90;;;;;;5044342;28;20041;-79
2022/07/16 07:09:15;;;;;;;6.63;0.80;;;16.40;99.90;;;;;;5029641;28;20044;-79
2022/07/16 07:11:42;;;;;;;6.90;0.90;;;16.40;99.90;;;;;;5044542;28;20037;-79
2022/07/16 07:14:08;;;;;;;2.42;0.63;;;16.70;99.90;;;;;;5042396;28;20103;-80
2022/07/16 07:16:34;;;;;;;4.70;1.00;;;16.90;99.90;;;;;;5044617;28;20091;-80
2022/07/16 07:18:59;;;;;;;10.32;0.93;;;17.00;99.90;;;;;;5045563;28;20041;-79
2022/07/16 07:21:25;;;;;;;7.72;1.20;;;17.20;99.90;;;;;;5047299;28;20495;-80
2022/07/16 07:23:51;;;;;;;5.22;0.98;;;17.20;99.90;;;;;;5043927;28;20045;-80
2022/07/16 07:26:16;;;;;;;4.40;1.00;;;17.00;99.90;;;;;;5045613;28;20043;-80
2022/07/16 07:28:42;;;;;;;4.68;0.80;;;16.80;99.90;;;;;;5047703;28;20802;-80
2022/07/16 07:31:07;;;;;;;7.82;1.05;;;16.60;99.90;;;;;;5044821;28;20049;-80
2022/07/16 07:33:33;;;;;;;7.65;1.00;;;16.50;99.90;;;;;;5046090;28;20525;-80
2022/07/16 07:35:58;;;;;;;7.40;0.90;;;16.70;99.90;;;;;;5045008;28;20040;-80
2022/07/16 07:38:25;;;;;;;6.53;1.00;;;16.90;99.90;;;;;;5045697;28;20490;-80
2022/07/16 07:40:50;;;;;;;3.38;0.90;;;17.10;99.90;;;;;;5051029;28;20044;-79
2022/07/16 07:43:16;;;;;;;5.65;1.00;;;17.00;99.90;;;;;;5052299;28;20063;-79
2022/07/16 07:45:42;;;;;;;3.65;0.85;;;17.00;99.90;;;;;;5065686;28;20405;-80
2022/07/16 07:48:08;;;;;;;4.63;0.80;;;17.00;99.90;;;;;;5054569;28;20053;-79
2022/07/16 07:50:33;;;;;;;5.25;0.60;;;16.90;99.90;;;;;;5029985;28;20491;-79
2022/07/16 07:52:59;;;;;;;5.07;0.90;;;16.90;99.90;;;;;;5029398;28;20408;-78
2022/07/16 07:55:25;;;;;;;5.72;0.70;;;17.40;99.90;;;;;;5045440;28;20097;-78
2022/07/16 07:57:50;;;;;;;3.75;0.85;;;17.60;99.90;;;;;;5044924;28;20175;-80
2022/07/16 08:00:16;;;;;;;5.55;0.93;;;17.50;99.90;;;;;;5049898;28;20648;-80
2022/07/16 08:02:43;;;;;;;4.75;1.00;;;17.40;99.90;;;;;;5051357;28;20079;-79
2022/07/16 08:05:09;;;;;;;5.65;1.10;;;17.20;99.90;;;;;;5043180;28;20037;-79
2022/07/16 08:07:35;;;;;;;8.15;0.98;;;17.10;99.90;;;;;;5034538;28;20149;-79
2022/07/16 08:10:01;;;;;;;7.00;1.02;;;17.40;99.90;;;;;;5047831;28;20124;-79
2022/07/16 08:12:26;;;;;;;6.32;0.90;;;17.50;99.90;;;;;;5044051;28;20046;-79
2022/07/16 08:14:52;;;;;;;4.63;0.98;;;17.60;99.90;;;;;;5050579;28;20029;-79
2022/07/16 08:17:17;;;;;;;6.10;1.05;;;17.60;99.90;;;;;;5043150;28;20071;-79
2022/07/16 08:19:43;;;;;;;4.18;0.90;;;17.60;99.90;;;;;;5048336;28;20494;-79
2022/07/16 08:22:08;;;;;;;4.68;0.85;;;17.70;99.90;;;;;;5047628;28;20442;-79
2022/07/16 08:27:18;;;;;;;5.32;0.85;;;18.40;99.90;;;;;;5034008;28;20052;-79
2022/07/16 08:29:43;;;;;;;3.03;0.68;;;18.50;99.90;;;;;;5039431;28;20038;-79
2022/07/16 08:32:09;;;;;;;6.00;0.90;;;18.70;99.90;;;;;;5041303;28;20039;-79
2022/07/16 08:34:35;;;;;;;4.28;1.02;;;18.50;99.90;;;;;;5037123;28;20065;-79
2022/07/16 08:37:08;;;;;;;6.00;0.98;;;18.30;99.90;;;;;;5028970;28;20063;-79
2022/07/16 08:39:37;;;;;;;5.88;1.00;;;18.10;99.90;;;;;;5040907;28;20036;-80
2022/07/16 08:42:03;;;;;;;6.60;1.00;;;18.10;99.90;;;;;;5037931;28;20101;-80
2022/07/16 08:44:29;;;;;;;3.38;0.90;;;18.40;99.90;;;;;;5034633;28;20061;-82
2022/07/16 08:46:55;;;;;;;10.68;1.40;;;18.60;99.90;;;;;;5023415;28;20429;-79
2022/07/16 08:49:22;;;;;;;9.40;1.25;;;18.80;99.90;;;;;;5038340;28;20054;-79
2022/07/16 08:51:49;;;;;;;4.43;1.08;;;19.30;99.90;;;;;;5044947;28;20461;-80
2022/07/16 08:54:21;;;;;;;8.70;1.00;;;19.40;99.90;;;;;;5048016;28;20410;-81
2022/07/16 08:56:49;;;;;;;7.80;1.40;;;19.60;99.90;;;;;;5034496;28;20087;-81
2022/07/16 08:59:14;;;;;;;7.13;1.20;;;19.60;99.90;;;;;;5050952;28;20047;-81
2022/07/16 09:01:41;;;;;;;5.43;1.30;;;19.40;99.90;;;;;;5054024;28;20037;-82
2022/07/16 09:04:07;;;;;;;4.53;1.30;;;19.60;99.90;;;;;;5051357;28;20095;-82
2022/07/16 09:06:33;;;;;;;4.90;1.02;;;19.40;98.90;;;;;;5042691;28;20415;-81
2022/07/16 09:08:58;;;;;;;3.60;0.60;;;19.50;99.40;;;;;;5017587;28;20402;-80
2022/07/16 09:11:27;;;;;;;6.15;1.35;;;19.70;99.90;;;;;;5033198;28;20042;-82
2022/07/16 09:14:13;;;;;;;5.60;1.10;;;19.80;99.70;;;;;;5032776;28;20029;-82
2022/07/16 09:16:40;;;;;;;14.43;1.20;;;19.70;98.10;;;;;;5033019;28;20073;-81
2022/07/16 09:19:12;;;;;;;6.70;0.93;;;19.10;98.40;;;;;;5036349;28;20056;-81
2022/07/16 09:21:58;;;;;;;4.07;0.80;;;18.80;98.80;;;;;;5037521;28;20041;-83
2022/07/16 09:24:31;;;;;;;6.15;1.20;;;18.60;99.00;;;;;;5035510;28;20041;-82
2022/07/16 09:27:05;;;;;;;5.55;0.93;;;18.30;98.60;;;;;;5037422;28;20041;-81
2022/07/16 09:30:02;;;;;;;6.05;1.02;;;18.10;98.30;;;;;;5036382;28;20050;-81
2022/07/16 09:32:36;;;;;;;4.97;1.20;;;18.20;98.20;;;;;;5034997;28;20045;-83
2022/07/16 09:35:16;;;;;;;5.47;1.10;;;18.50;98.80;;;;;;5033407;28;20041;-85
2022/07/16 09:37:49;;;;;;;5.10;1.23;;;18.60;97.30;;;;;;5036365;28;20037;-80
2022/07/16 09:40:28;;;;;;;6.28;1.00;;;18.50;97.80;;;;;;5035833;28;20045;-84
2022/07/16 09:42:54;;;;;;;6.15;1.10;;;18.40;97.90;;;;;;5035917;28;20464;-82
2022/07/16 09:45:21;;;;;;;4.97;1.13;;;18.30;98.00;;;;;;5034421;28;20049;-81
2022/07/16 09:47:47;;;;;;;7.32;0.98;;;18.60;98.10;;;;;;5036620;28;20037;-81
2022/07/16 09:50:12;;;;;;;3.60;1.05;;;18.80;96.30;;;;;;5034296;28;20462;-83
2022/07/16 09:52:39;;;;;;;7.28;1.02;;;19.00;97.40;;;;;;5017485;28;20045;-82
2022/07/16 09:55:06;;;;;;;7.68;1.20;;;19.00;97.30;;;;;;5032958;28;20037;-83
2022/07/16 09:57:32;;;;;;;4.90;0.93;;;19.00;97.50;;;;;;5033653;28;20280;-83
2022/07/16 09:59:58;;;;;;;5.30;0.80;;;18.70;97.90;;;;;;5032924;28;20041;-82
2022/07/16 10:02:24;;;;;;;4.75;0.90;;;18.60;98.00;;;;;;5034867;28;20045;-83
2022/07/16 10:04:50;;;;;;;3.83;0.90;;;18.50;97.30;;;;;;5034697;28;20128;-83
2022/07/16 10:07:19;;;;;;;5.57;1.02;;;18.90;97.50;;;;;;5035433;28;20053;-83
2022/07/16 10:09:45;;;;;;;5.85;0.80;;;19.00;97.70;;;;;;5034470;28;20052;-83
2022/07/16 10:12:13;;;;;;;4.72;0.77;;;19.10;97.20;;;;;;5035328;28;20046;-87
2022/07/16 10:14:52;;;;;;;4.15;0.90;;;18.70;96.40;;;;;;5042110;28;20496;-82
2022/07/16 10:17:22;;;;;;;6.35;1.38;;;18.80;97.20;;;;;;5044169;28;20033;-84
2022/07/16 10:20:04;;;;;;;4.38;1.02;;;19.00;97.80;;;;;;5042652;28;20125;-85
2022/07/16 10:22:36;;;;;;;2.85;1.10;;;19.40;97.70;;;;;;5049065;28;20054;-83
2022/07/16 10:25:11;;;;;;;5.13;1.10;;;19.50;97.10;;;;;;5055090;28;20045;-81
2022/07/16 10:27:36;;;;;;;6.90;1.60;;;19.70;97.70;;;;;;5047514;28;20124;-84
2022/07/16 10:30:16;;;;;;;6.95;1.02;;;19.80;97.50;;;;;;5035108;28;20184;-82
2022/07/16 10:33:00;;;;;;;6.82;1.13;;;19.50;97.40;;;;;;5024456;28;20101;-82
2022/07/16 10:35:38;;;;;;;5.63;1.05;;;19.30;96.70;;;;;;5041518;28;20405;-82
2022/07/16 10:38:15;;;;;;;2.95;0.80;;;19.10;97.50;;;;;;5040099;28;20108;-82
2022/07/16 10:40:42;;;;;;;4.28;0.95;;;19.40;96.10;;;;;;5041178;28;20037;-83
2022/07/16 10:43:10;;;;;;;5.40;0.90;;;19.60;97.00;;;;;;5040069;28;20033;-83
2022/07/16 10:45:54;;;;;;;5.22;0.90;;;19.80;96.70;;;;;;5041223;28;20048;-83
2022/07/16 10:48:20;;;;;;;;;;;19.80;96.40;;;;;;5039039;28;20034;-84
2022/07/16 10:51:11;;;;;;;4.72;1.15;;;19.80;96.30;;;;;;5037083;28;19928;-81
2022/07/16 10:53:58;;;;;;;4.45;1.00;;;19.80;97.10;;;;;;5037979;28;20451;-83
2022/07/16 10:56:33;;;;;;;6.35;1.10;;;19.90;97.20;;;;;;5023949;28;20145;-81
2022/07/16 10:58:58;;;;;;;5.43;1.00;;;19.80;97.10;;;;;;5043686;28;20044;-81
2022/07/16 11:01:24;;;;;;;4.32;0.95;;;19.70;97.20;;;;;;5043186;28;20061;-81
2022/07/16 11:03:53;;;;;;;7.53;1.10;;;19.80;96.70;;;;;;5037248;28;20041;-80
2022/07/16 11:06:20;;;;;;;6.78;1.20;;;19.80;97.10;;;;;;5051319;28;20063;-82
2022/07/16 11:08:51;;;;;;;3.78;1.17;;;20.00;96.70;;;;;;5050315;28;20041;-82
2022/07/16 11:11:17;;;;;;;3.97;1.10;;;20.00;96.90;;;;;;5048852;28;20041;-81
2022/07/16 11:13:42;;;;;;;4.03;0.88;;;20.20;96.40;;;;;;5047281;28;20040;-81
2022/07/16 11:16:09;;;;;;;3.80;1.08;;;20.30;95.90;;;;;;5049258;28;20040;-80
2022/07/16 11:18:39;;;;;;;9.23;1.05;;;20.30;95.50;;;;;;5032488;28;20029;-81
2022/07/16 11:21:07;;;;;;;4.70;0.98;;;20.30;95.20;;;;;;5046866;28;20041;-80
2022/07/16 11:24:05;;;;;;;5.68;0.93;;;20.30;94.90;;;;;;5049752;28;20051;-80
2022/07/16 11:26:31;;;;;;;7.82;1.00;;;20.90;96.40;;;;;;5040452;28;20071;-82
2022/07/16 11:28:59;;;;;;;7.07;1.13;;;21.10;96.70;;;;;;5054708;28;20503;-80
2022/07/16 11:31:36;;;;;;;7.28;1.00;;;21.00;96.70;;;;;;5046173;28;20128;-81
2022/07/16 11:34:09;;;;;;;6.47;1.45;;;21.00;96.00;;;;;;5048048;28;20040;-80
2022/07/16 11:36:36;;;;;;;3.95;1.00;;;21.10;96.60;;;;;;5047422;28;20079;-80
2022/07/16 11:39:08;;;;;;;4.90;1.38;;;21.10;96.50;;;;;;5049866;28;20041;-80
2022/07/16 11:41:39;;;;;;;8.13;1.17;;;20.70;95.50;;;;;;5051395;28;20639;-81
2022/07/16 11:44:09;;;;;;;4.05;1.30;;;20.40;96.70;;;;;;5050788;28;20499;-80
2022/07/16 11:47:00;;;;;;;9.32;1.20;;;20.30;96.80;;;;;;5049320;28;20049;-80
2022/07/16 11:49:36;;;;;;;7.72;1.23;;;20.50;95.70;;;;;;5049670;28;20076;-80
2022/07/16 11:52:04;;;;;;;5.95;1.02;;;20.50;96.30;;;;;;5045431;28;20491;-80
2022/07/16 11:54:35;;;;;;;6.07;1.17;;;20.60;96.80;;;;;;5050951;28;20438;-80
2022/07/16 11:57:00;;;;;;;4.65;1.08;;;20.40;96.50;;;;;;5053027;28;20033;-79
2022/07/16 11:59:31;;;;;;;7.70;1.38;;;20.70;97.10;;;;;;5033861;28;20484;-80
2022/07/16 12:01:57;;;;;;;6.97;1.20;;;20.90;96.60;;;;;;5049131;28;20045;-80
2022/07/16 12:04:33;;;;;;;6.93;1.30;;;21.00;96.30;;;;;;5052421;28;20036;-80
2022/07/16 12:06:59;;;;;;;6.13;1.25;;;21.30;96.50;;;;;;5043555;28;20569;-80
2022/07/16 12:09:34;;;;;;;5.15;1.08;;;21.60;96.00;;;;;;5041431;28;20094;-82
2022/07/16 12:12:01;;;;;;;5.38;1.05;;;21.20;95.70;;;;;;5040088;28;20045;-81
2022/07/16 12:14:52;;;;;;;9.00;1.50;;;21.00;96.30;;;;;;5048474;28;20034;-81
2022/07/16 12:17:23;;;;;;;8.55;1.67;;;20.90;96.20;;;;;;5043021;28;20053;-78
2022/07/16 12:20:32;;;;;;;4.22;1.20;;;20.80;96.10;;;;;;5032677;28;20424;-78
2022/07/16 12:22:58;;;;;;;6.50;1.20;;;21.10;95.50;;;;;;5025484;28;20037;-79
2022/07/16 12:25:35;;;;;;;9.80;1.40;;;21.40;95.70;;;;;;5048147;28;20048;-78
2022/07/16 12:28:19;;;;;;;9.73;1.60;;;20.90;95.60;;;;;;5038422;28;20123;-77
2022/07/16 12:30:51;;;;;;;7.97;1.27;;;20.80;95.50;;;;;;5048675;28;20049;-78
2022/07/16 12:33:23;;;;;;;7.13;1.48;;;20.60;96.10;;;;;;5036975;28;20514;-78
2022/07/16 12:35:53;;;;;;;7.45;1.10;;;20.60;96.50;;;;;;5044085;28;20072;-77
2022/07/16 12:39:00;;;;;;;4.60;1.23;;;21.30;96.70;;;;;;5047054;28;20052;-78
2022/07/16 12:41:27;;;;;;;8.32;1.52;;;21.30;95.50;;;;;;5042239;28;20525;-78
2022/07/16 12:44:00;;;;;;;8.00;1.40;;;21.40;96.30;;;;;;5021783;28;20128;-78
2022/07/16 12:46:29;;;;;;;8.48;1.35;;;20.80;96.00;;;;;;5034965;28;20037;-78
2022/07/16 12:48:58;;;;;;;6.47;1.30;;;20.70;96.20;;;;;;5042121;28;20498;-78
2022/07/16 12:51:27;;;;;;;5.95;1.20;;;21.10;95.80;;;;;;5044087;28;20408;-78
2022/07/16 12:53:54;;;;;;;9.48;1.23;;;21.30;96.10;;;;;;5032897;28;20079;-77
2022/07/16 12:59:05;;;;;;;5.80;1.00;;;21.50;96.10;;;;;;5050021;28;20037;-78
2022/07/16 13:01:31;;;;;;;5.85;1.30;;;21.20;95.60;;;;;;5037103;28;20040;-78
2022/07/16 13:03:57;;;;;;;9.43;1.27;;;21.30;96.10;;;;;;5046102;28;20502;-79